Time;durP1;ratioP1;P1;durP2;ratioP2;P2;SDS_P1;SDS_P2;PMS_P1;PMS_P2;Temp;Humidity;BMP_temperature;BMP_pressure;BME280_temperature;BME280_humidity;BME280_pressure;Samples;Min_cycle;Max_cycle;Signal;HPM_P1;HPM_P2
2022/12/16 00:00:20;;;;;;;38.83;23.57;;;-0.40;99.90;;;;;;5117004;27;20106;-79
2022/12/16 00:02:45;;;;;;;39.53;24.50;;;-0.40;99.90;;;;;;5115561;27;20039;-79
2022/12/16 00:05:11;;;;;;;40.17;25.07;;;-0.50;99.90;;;;;;5111937;27;20039;-80
2022/12/16 00:07:36;;;;;;;33.20;23.57;;;-0.50;99.90;;;;;;5115641;27;20031;-80
2022/12/16 00:10:02;;;;;;;35.83;24.03;;;-0.50;99.90;;;;;;5118930;27;20036;-79
2022/12/16 00:12:28;;;;;;;35.13;22.90;;;-0.40;99.90;;;;;;5120857;27;20442;-79
2022/12/16 00:14:54;;;;;;;35.67;23.87;;;-0.50;99.90;;;;;;5111082;27;20074;-79
2022/12/16 00:17:19;;;;;;;34.53;23.23;;;-0.50;99.90;;;;;;5099548;28;20043;-79
2022/12/16 00:19:45;;;;;;;36.70;23.97;;;-0.50;99.90;;;;;;5107130;27;20125;-79
2022/12/16 00:22:10;;;;;;;37.47;22.87;;;-0.50;99.90;;;;;;5112101;27;20027;-79
2022/12/16 00:24:36;;;;;;;33.13;22.83;;;-0.50;99.90;;;;;;5117009;27;20055;-79
2022/12/16 00:27:01;;;;;;;33.37;22.57;;;-0.60;99.90;;;;;;5112254;27;20365;-79
2022/12/16 00:29:27;;;;;;;35.67;23.57;;;-0.60;99.90;;;;;;5098025;27;20039;-79
2022/12/16 00:31:53;;;;;;;35.03;22.80;;;-0.60;99.90;;;;;;5109415;27;20444;-79
2022/12/16 00:34:18;;;;;;;32.93;22.70;;;-0.60;99.90;;;;;;5121617;27;20408;-79
2022/12/16 00:36:45;;;;;;;36.57;23.70;;;-0.60;99.90;;;;;;5096528;27;20446;-79
2022/12/16 00:39:10;;;;;;;36.43;23.57;;;-0.60;99.90;;;;;;5106855;27;20577;-79
2022/12/16 00:41:36;;;;;;;35.00;23.53;;;-0.60;99.90;;;;;;5115363;27;20039;-79
2022/12/16 00:44:02;;;;;;;34.83;21.23;;;-0.60;99.90;;;;;;5108272;27;20047;-80
2022/12/16 00:46:28;;;;;;;32.47;20.67;;;-0.60;99.90;;;;;;5112596;27;20039;-79
2022/12/16 00:48:54;;;;;;;33.03;21.67;;;-0.50;99.90;;;;;;5111643;27;20035;-78
2022/12/16 00:51:19;;;;;;;36.87;20.70;;;-0.60;99.90;;;;;;5118047;27;20408;-78
2022/12/16 00:53:45;;;;;;;32.30;20.63;;;-0.60;99.90;;;;;;5116788;27;20023;-79
2022/12/16 00:56:17;;;;;;;30.77;20.03;;;-0.60;99.90;;;;;;5112203;27;20131;-79
2022/12/16 00:58:42;;;;;;;29.13;17.93;;;-0.60;99.90;;;;;;5095441;27;20027;-79
2022/12/16 01:01:08;;;;;;;31.17;18.13;;;-0.70;99.90;;;;;;5113327;27;20035;-78
2022/12/16 01:03:35;;;;;;;29.97;15.97;;;-0.70;99.90;;;;;;5113227;27;20496;-79
2022/12/16 01:06:00;;;;;;;25.37;16.10;;;-0.70;99.90;;;;;;5102715;27;20130;-79
2022/12/16 01:08:26;;;;;;;23.17;14.40;;;-0.40;99.90;;;;;;5114072;27;20471;-79
2022/12/16 01:10:54;;;;;;;23.13;13.30;;;-0.70;99.90;;;;;;5113149;27;20043;-79
2022/12/16 01:13:21;;;;;;;21.10;12.07;;;-0.70;99.90;;;;;;5087652;27;20035;-78
2022/12/16 01:15:47;;;;;;;18.20;12.00;;;-0.60;99.90;;;;;;5096927;27;20508;-79
2022/12/16 01:18:13;;;;;;;19.57;11.83;;;-0.60;99.90;;;;;;5085171;27;20060;-78
2022/12/16 01:20:38;;;;;;;18.57;10.70;;;-0.50;99.90;;;;;;5113324;27;20045;-78
2022/12/16 01:23:04;;;;;;;16.60;9.73;;;-0.40;99.90;;;;;;5104660;27;20047;-79
2022/12/16 01:25:30;;;;;;;14.67;8.47;;;-0.30;99.90;;;;;;5125924;27;20039;-79
2022/12/16 01:27:56;;;;;;;13.43;7.67;;;-0.30;99.90;;;;;;5108364;27;20031;-79
2022/12/16 01:30:23;;;;;;;12.33;7.57;;;-0.20;99.90;;;;;;5090018;27;20035;-79
2022/12/16 01:32:48;;;;;;;13.40;6.77;;;-0.10;99.90;;;;;;5112206;27;20289;-78
2022/12/16 01:35:14;;;;;;;12.13;6.47;;;-0.10;99.90;;;;;;5111827;27;20039;-79
2022/12/16 01:37:39;;;;;;;11.47;6.17;;;0.10;99.90;;;;;;5108036;27;20035;-79
2022/12/16 01:40:06;;;;;;;9.83;5.60;;;0.10;99.90;;;;;;5107735;27;20123;-79
2022/12/16 01:42:32;;;;;;;8.33;5.60;;;0.10;99.90;;;;;;5106757;27;20096;-79
2022/12/16 01:45:27;;;;;;;10.63;5.73;;;0.20;99.90;;;;;;5105053;27;20035;-79
2022/12/16 01:47:54;;;;;;;11.23;5.90;;;0.30;99.90;;;;;;5109419;27;20079;-79
2022/12/16 01:50:20;;;;;;;9.77;6.10;;;0.40;99.90;;;;;;5117224;27;20049;-80
2022/12/16 01:52:52;;;;;;;11.43;6.40;;;0.50;99.90;;;;;;5101195;27;20126;-79
2022/12/16 01:55:22;;;;;;;8.60;5.40;;;0.50;99.90;;;;;;5096647;27;20064;-80
2022/12/16 01:57:52;;;;;;;9.57;4.73;;;0.50;99.90;;;;;;5114807;27;20509;-80
2022/12/16 02:00:18;;;;;;;8.40;5.20;;;0.50;99.90;;;;;;5107936;27;20095;-80
2022/12/16 02:02:46;;;;;;;10.57;4.83;;;0.50;99.90;;;;;;5108511;27;20031;-80
2022/12/16 02:05:20;;;;;;;9.43;5.67;;;0.50;99.90;;;;;;5113674;27;20118;-80
2022/12/16 02:07:57;;;;;;;8.80;5.10;;;0.50;99.90;;;;;;5101780;27;20031;-80
2022/12/16 02:10:31;;;;;;;8.23;4.93;;;0.50;99.90;;;;;;5102527;28;20114;-80
2022/12/16 02:13:30;;;;;;;9.40;5.00;;;0.50;99.90;;;;;;5113238;27;20079;-80
2022/12/16 02:16:22;;;;;;;7.13;4.97;;;0.60;99.90;;;;;;5126281;27;20062;-80
2022/12/16 02:19:17;;;;;;;8.47;5.00;;;0.60;99.90;;;;;;5095928;27;20038;-81
2022/12/16 02:22:21;;;;;;;7.50;5.10;;;0.60;99.90;;;;;;5115499;27;20047;-80
2022/12/16 02:25:08;;;;;;;6.50;4.88;;;0.70;99.90;;;;;;5110076;27;20065;-80
2022/12/16 02:27:42;;;;;;;10.03;5.27;;;0.70;99.90;;;;;;5107625;27;20104;-80
2022/12/16 02:30:26;;;;;;;;;;;0.80;99.90;;;;;;5115865;27;20031;-81
2022/12/16 02:33:07;;;;;;;8.73;5.40;;;0.80;99.90;;;;;;5117061;27;20315;-80
2022/12/16 02:35:51;;;;;;;7.83;4.70;;;0.80;99.90;;;;;;5091437;27;20079;-80
2022/12/16 02:38:23;;;;;;;7.60;5.90;;;0.70;99.90;;;;;;5111896;28;20039;-80
2022/12/16 02:41:06;;;;;;;6.43;4.80;;;0.70;99.90;;;;;;5115280;27;20042;-80
2022/12/16 02:44:14;;;;;;;7.83;5.07;;;0.60;99.90;;;;;;5103366;27;20377;-80
2022/12/16 02:46:42;;;;;;;7.73;4.90;;;0.60;99.90;;;;;;5091813;27;20047;-81
2022/12/16 02:49:11;;;;;;;9.57;5.60;;;0.60;99.90;;;;;;5109789;28;20064;-81
2022/12/16 02:51:37;;;;;;;9.23;5.53;;;0.60;99.90;;;;;;5083275;28;20075;-81
2022/12/16 02:54:04;;;;;;;7.80;5.20;;;0.50;99.90;;;;;;5108839;28;20031;-80
2022/12/16 02:56:46;;;;;;;8.47;5.50;;;0.50;99.90;;;;;;5105337;28;20066;-80
2022/12/16 02:59:46;;;;;;;7.97;5.43;;;0.50;99.90;;;;;;5087641;28;20040;-80
2022/12/16 03:02:27;;;;;;;8.73;5.40;;;0.50;99.90;;;;;;5092234;28;20067;-80
2022/12/16 03:05:10;;;;;;;10.90;5.57;;;0.50;99.90;;;;;;5112493;28;20106;-81
2022/12/16 03:07:38;;;;;;;6.97;5.33;;;0.40;99.90;;;;;;5114863;28;20035;-81
2022/12/16 03:10:07;;;;;;;9.07;5.67;;;0.40;99.90;;;;;;5129261;27;20050;-81
2022/12/16 03:12:34;;;;;;;9.70;5.57;;;0.50;99.90;;;;;;5104951;28;20136;-80
2022/12/16 03:15:01;;;;;;;9.77;5.73;;;0.50;99.90;;;;;;5111569;28;20051;-81
2022/12/16 03:17:28;;;;;;;9.47;5.80;;;0.50;99.90;;;;;;5113422;28;20049;-81
2022/12/16 03:20:07;;;;;;;12.50;5.93;;;0.50;99.90;;;;;;5108950;28;20088;-80
2022/12/16 03:22:36;;;;;;;7.57;5.43;;;0.50;99.90;;;;;;5105800;28;20092;-81
2022/12/16 03:25:03;;;;;;;12.93;5.77;;;0.40;99.90;;;;;;5112317;28;20059;-81
2022/12/16 03:27:45;;;;;;;9.00;5.03;;;0.40;99.90;;;;;;5108111;28;20032;-80
2022/12/16 03:30:16;;;;;;;9.60;5.60;;;0.40;99.90;;;;;;5113989;28;20035;-81
2022/12/16 03:33:02;;;;;;;11.43;6.10;;;0.30;99.90;;;;;;5116892;27;20056;-81
2022/12/16 03:35:39;;;;;;;7.80;5.40;;;0.30;99.90;;;;;;5106452;28;20035;-80
2022/12/16 03:38:08;;;;;;;9.93;5.23;;;0.20;99.90;;;;;;5107305;27;20051;-81
2022/12/16 03:40:36;;;;;;;9.47;5.97;;;0.20;99.90;;;;;;5114859;27;20034;-80
2022/12/16 03:43:03;;;;;;;10.23;6.17;;;0.20;99.90;;;;;;5116759;27;20039;-80
2022/12/16 03:45:35;;;;;;;10.93;6.27;;;0.20;99.90;;;;;;5103009;27;20031;-80
2022/12/16 03:48:01;;;;;;;10.10;6.80;;;0.20;99.90;;;;;;5110730;28;20556;-80
2022/12/16 03:50:32;;;;;;;11.17;7.27;;;0.30;99.90;;;;;;5117239;27;20070;-80
2022/12/16 03:52:58;;;;;;;17.23;9.37;;;0.30;99.90;;;;;;5111641;28;20511;-80
2022/12/16 03:55:23;;;;;;;16.67;10.20;;;0.30;99.90;;;;;;5114291;27;20028;-80
2022/12/16 03:57:49;;;;;;;19.00;12.13;;;0.40;99.90;;;;;;5113751;27;20493;-80
2022/12/16 04:00:15;;;;;;;20.33;13.57;;;0.40;99.90;;;;;;5116799;27;20412;-79
2022/12/16 04:02:41;;;;;;;29.60;18.60;;;0.40;99.90;;;;;;5100552;28;20036;-80
2022/12/16 04:05:08;;;;;;;39.10;21.23;;;0.50;99.90;;;;;;5110056;27;20130;-80
2022/12/16 04:07:34;;;;;;;39.77;23.10;;;0.60;99.90;;;;;;5111999;27;20049;-80
2022/12/16 04:09:59;;;;;;;44.00;25.07;;;0.70;99.90;;;;;;5115969;27;20039;-80
2022/12/16 04:26:10;;;;;;;41.07;24.90;;;0.70;99.90;;;;;;5115556;27;20475;-80
2022/12/16 04:28:36;;;;;;;42.53;24.97;;;0.70;99.90;;;;;;5111781;27;20035;-80
2022/12/16 04:31:02;;;;;;;44.43;26.70;;;0.60;99.90;;;;;;5113735;28;20048;-80
